Time;durP1;ratioP1;P1;durP2;ratioP2;P2;SDS_P1;SDS_P2;PMS_P1;PMS_P2;Temp;Humidity;BMP_temperature;BMP_pressure;BME280_temperature;BME280_humidity;BME280_pressure;Samples;Min_cycle;Max_cycle;Signal;HPM_P1;HPM_P2
2021/03/21 00:00:33;;;;;;;3.13;1.90;;;;;;;5.14;40.38;98899.91;4988278;28;20239;-71
2021/03/21 00:03:00;;;;;;;4.53;2.17;;;;;;;5.15;40.29;98898.94;4994358;28;20231;-70
2021/03/21 00:05:28;;;;;;;3.20;2.20;;;;;;;4.95;41.39;98889.41;4993776;28;20214;-71
2021/03/21 00:07:56;;;;;;;2.67;2.00;;;;;;;5.06;40.75;98883.91;4993811;28;20250;-71
2021/03/21 00:10:27;;;;;;;3.17;2.10;;;;;;;4.85;42.44;98892.09;4990732;28;20248;-71
2021/03/21 00:12:55;;;;;;;3.43;1.83;;;;;;;5.12;40.18;98889.47;4993260;28;20212;-70
2021/03/21 00:15:23;;;;;;;3.33;2.10;;;;;;;5.18;39.80;98882.78;4993430;28;20229;-70
2021/03/21 00:17:50;;;;;;;3.80;2.20;;;;;;;4.97;40.66;98879.53;4993377;28;20211;-70
2021/03/21 00:20:18;;;;;;;6.60;2.23;;;;;;;4.96;40.74;98877.84;4988335;28;20239;-70
2021/03/21 00:22:45;;;;;;;4.17;2.13;;;;;;;5.04;40.52;98884.09;4994090;28;20235;-70
2021/03/21 00:25:15;;;;;;;4.00;2.37;;;;;;;5.12;40.42;98889.47;4993930;28;20311;-70
2021/03/21 00:27:42;;;;;;;4.50;2.67;;;;;;;5.13;40.99;98885.84;4993490;28;20216;-70
2021/03/21 00:30:13;;;;;;;2.70;2.00;;;;;;;5.18;40.75;98886.25;4991609;28;20231;-71
2021/03/21 00:32:40;;;;;;;4.27;2.27;;;;;;;4.81;41.00;98888.06;4989644;28;20232;-70
2021/03/21 00:35:08;;;;;;;4.23;1.90;;;;;;;5.02;40.86;98882.56;4985688;28;20568;-70
2021/03/21 00:37:38;;;;;;;3.13;1.93;;;;;;;4.97;41.29;98885.63;4991992;28;20215;-70
2021/03/21 00:40:07;;;;;;;2.70;2.00;;;;;;;5.07;40.41;98885.63;4993362;28;20764;-71
2021/03/21 00:42:33;;;;;;;3.97;1.87;;;;;;;5.10;41.20;98875.56;4993079;28;20669;-70
2021/03/21 00:45:00;;;;;;;5.40;2.73;;;;;;;5.18;40.50;98867.72;4992173;28;20208;-69
2021/03/21 00:47:28;;;;;;;3.17;1.93;;;;;;;5.14;40.95;98870.81;4992839;28;20703;-70
2021/03/21 00:49:55;;;;;;;3.70;2.13;;;;;;;5.08;40.71;98859.00;4993170;28;20581;-69
2021/03/21 00:52:21;;;;;;;7.10;2.37;;;;;;;5.14;40.72;98865.53;4991197;28;20397;-70
2021/03/21 00:54:48;;;;;;;2.80;1.73;;;;;;;4.95;40.20;98865.59;4982032;28;20307;-69
2021/03/21 00:57:15;;;;;;;4.50;1.90;;;;;;;5.01;40.42;98863.22;4982150;28;20673;-70
2021/03/21 00:59:42;;;;;;;2.30;1.60;;;;;;;5.17;40.46;98860.75;4985820;28;20724;-69
2021/03/21 01:02:10;;;;;;;3.93;2.33;;;;;;;4.97;40.27;98859.19;4993054;28;20200;-70
2021/03/21 01:04:37;;;;;;;5.00;2.07;;;;;;;5.10;39.70;98854.41;4975437;28;20220;-70
2021/03/21 01:07:04;;;;;;;4.03;1.67;;;;;;;5.02;40.55;98854.28;4989402;28;20678;-70
2021/03/21 01:09:31;;;;;;;3.77;1.63;;;;;;;4.89;40.40;98856.44;4982784;28;20236;-70
2021/03/21 01:11:58;;;;;;;4.23;1.90;;;;;;;5.13;39.71;98846.16;4980720;28;20211;-70
2021/03/21 01:14:25;;;;;;;3.63;1.77;;;;;;;5.29;40.07;98853.47;4985662;28;20211;-70
2021/03/21 01:16:52;;;;;;;4.50;1.73;;;;;;;5.07;40.16;98846.75;4980268;28;20275;-70
2021/03/21 01:19:21;;;;;;;5.07;1.97;;;;;;;5.01;40.18;98844.69;4976350;28;20702;-70
2021/03/21 01:21:49;;;;;;;3.17;1.70;;;;;;;4.96;40.32;98840.81;4989806;28;20208;-70
2021/03/21 01:24:19;;;;;;;2.33;1.57;;;;;;;5.11;40.10;98840.19;4992618;28;20228;-70
2021/03/21 01:26:46;;;;;;;2.83;1.83;;;;;;;5.09;40.16;98831.59;4985427;28;20582;-70
2021/03/21 01:29:13;;;;;;;3.63;1.90;;;;;;;5.08;39.72;98835.19;4991837;28;20716;-70
2021/03/21 01:31:40;;;;;;;3.67;1.87;;;;;;;5.21;39.72;98832.19;4985339;28;20203;-70
2021/03/21 01:34:07;;;;;;;4.00;1.57;;;;;;;5.34;40.07;98830.84;4992176;28;20669;-70
2021/03/21 01:36:36;;;;;;;4.60;1.90;;;;;;;5.00;39.79;98832.44;4988260;28;20579;-69
2021/03/21 01:39:07;;;;;;;3.13;1.80;;;;;;;5.13;39.69;98818.88;4992711;28;20218;-70
2021/03/21 01:41:39;;;;;;;3.00;1.77;;;;;;;5.18;39.54;98821.94;4985931;28;20217;-69
2021/03/21 01:44:07;;;;;;;2.33;1.57;;;;;;;5.25;39.50;98813.25;4991775;28;20249;-69
2021/03/21 01:46:53;;;;;;;2.43;1.90;;;;;;;5.08;40.63;98808.72;4992270;28;20213;-69
2021/03/21 01:49:22;;;;;;;4.73;1.70;;;;;;;4.97;40.00;98806.28;4990995;28;20231;-70
2021/03/21 01:51:49;;;;;;;3.70;1.80;;;;;;;5.10;40.43;98804.13;4991511;28;20200;-70
2021/03/21 01:54:19;;;;;;;3.90;2.10;;;;;;;5.23;40.61;98801.97;4991055;28;20207;-70
2021/03/21 01:56:47;;;;;;;2.80;1.67;;;;;;;5.09;40.55;98804.28;4992343;28;20307;-70
2021/03/21 01:59:16;;;;;;;3.27;2.00;;;;;;;5.14;40.40;98800.19;4983658;28;20234;-70
2021/03/21 02:01:42;;;;;;;4.70;1.83;;;;;;;5.18;40.64;98792.81;4987198;28;20707;-70
2021/03/21 02:04:09;;;;;;;5.20;2.03;;;;;;;5.06;41.54;98796.63;4982864;28;21529;-70
2021/03/21 02:06:52;;;;;;;3.83;2.13;;;;;;;5.03;41.55;98789.00;4991790;28;20204;-70
2021/03/21 02:09:24;;;;;;;5.03;2.17;;;;;;;5.19;41.39;98789.19;4991016;28;20242;-70
2021/03/21 02:12:03;;;;;;;2.90;1.80;;;;;;;5.15;41.19;98786.00;4989652;28;20209;-70
2021/03/21 02:14:35;;;;;;;2.77;1.67;;;;;;;4.92;41.82;98797.13;4991718;28;20204;-70
2021/03/21 02:17:08;;;;;;;2.53;1.87;;;;;;;5.17;41.77;98781.38;4991706;28;20201;-69
2021/03/21 02:19:53;;;;;;;2.87;1.77;;;;;;;5.07;41.66;98775.31;4990261;28;20238;-70
2021/03/21 02:22:29;;;;;;;2.43;1.90;;;;;;;5.05;41.87;98772.00;4988876;28;20219;-70
2021/03/21 02:25:19;;;;;;;3.60;2.10;;;;;;;4.89;42.06;98768.31;4986255;28;20580;-70
2021/03/21 02:27:56;;;;;;;6.47;2.10;;;;;;;5.12;42.01;98766.97;4989737;28;20291;-70
2021/03/21 02:30:26;;;;;;;2.70;1.70;;;;;;;5.12;42.26;98762.47;4991332;28;20236;-70
2021/03/21 02:32:57;;;;;;;4.40;1.87;;;;;;;5.11;42.12;98767.91;4991772;28;20215;-70
2021/03/21 02:35:29;;;;;;;2.93;1.80;;;;;;;5.12;42.44;98759.84;4990315;28;20209;-70
2021/03/21 02:38:01;;;;;;;5.67;2.00;;;;;;;5.13;41.85;98764.16;4988601;28;20207;-70
2021/03/21 02:40:32;;;;;;;3.23;2.00;;;;;;;5.17;42.12;98760.22;4990523;28;20249;-70
2021/03/21 02:43:03;;;;;;;3.70;2.10;;;;;;;5.16;41.52;98748.00;4986575;28;20730;-70
2021/03/21 02:45:33;;;;;;;3.03;1.60;;;;;;;5.20;41.86;98745.88;4991933;28;20701;-70
2021/03/21 02:48:04;;;;;;;4.27;2.20;;;;;;;5.28;41.49;98760.00;4975458;28;20207;-70
2021/03/21 02:50:34;;;;;;;5.30;2.23;;;;;;;5.20;41.71;98751.16;4989640;28;20243;-70
2021/03/21 02:53:05;;;;;;;3.20;1.93;;;;;;;5.34;41.71;98751.47;4989622;28;20207;-70
2021/03/21 02:55:35;;;;;;;5.37;2.00;;;;;;;5.18;41.86;98751.31;4990159;28;20216;-70
2021/03/21 02:58:05;;;;;;;2.90;1.87;;;;;;;5.25;42.49;98735.66;4991709;28;20625;-70
2021/03/21 03:00:38;;;;;;;3.43;2.27;;;;;;;5.31;42.00;98733.25;4989930;28;20262;-70
2021/03/21 03:03:08;;;;;;;5.33;1.93;;;;;;;5.23;41.86;98737.66;4990818;28;20242;-70
2021/03/21 03:05:38;;;;;;;4.07;2.10;;;;;;;5.06;42.70;98725.19;4990161;28;20211;-70
2021/03/21 03:08:11;;;;;;;3.13;2.00;;;;;;;5.14;42.43;98723.47;4991653;28;20208;-70
2021/03/21 03:10:44;;;;;;;3.47;2.03;;;;;;;5.27;42.47;98723.94;4990584;28;20260;-70
2021/03/21 03:13:14;;;;;;;3.43;1.90;;;;;;;5.09;41.98;98712.53;4991878;28;20204;-70
2021/03/21 03:15:42;;;;;;;3.07;1.73;;;;;;;5.27;42.33;98718.66;4989049;28;20209;-70
2021/03/21 03:18:23;;;;;;;4.13;2.17;;;;;;;5.22;42.88;98720.06;4990471;28;20215;-70
2021/03/21 03:20:53;;;;;;;3.70;1.87;;;;;;;5.02;42.72;98713.28;4987416;28;20216;-70
2021/03/21 03:23:28;;;;;;;2.83;1.97;;;;;;;5.34;42.59;98708.31;4991531;28;20234;-69
2021/03/21 03:25:58;;;;;;;3.83;1.97;;;;;;;5.20;42.37;98701.72;4991320;28;20212;-70
2021/03/21 03:28:31;;;;;;;3.07;1.83;;;;;;;4.97;43.34;98699.66;4983268;28;20216;-70
2021/03/21 03:31:08;;;;;;;3.20;1.97;;;;;;;5.30;42.69;98699.00;4989960;28;20283;-69
2021/03/21 03:33:35;;;;;;;4.43;2.00;;;;;;;5.09;43.67;98694.03;4990513;28;20208;-70
2021/03/21 03:36:03;;;;;;;3.90;2.03;;;;;;;5.06;43.72;98682.88;4984976;28;20234;-70
2021/03/21 03:38:30;;;;;;;3.47;1.80;;;;;;;5.11;43.11;98697.34;4986078;28;20732;-70
2021/03/21 03:41:02;;;;;;;2.50;1.80;;;;;;;5.27;43.21;98678.97;4988145;28;20237;-70
2021/03/21 03:43:36;;;;;;;8.63;2.57;;;;;;;5.10;43.78;98679.81;4990563;28;20234;-70
2021/03/21 03:46:12;;;;;;;2.87;1.80;;;;;;;5.23;43.30;98679.44;4989245;28;20614;-70
2021/03/21 03:48:46;;;;;;;3.73;1.87;;;;;;;5.01;43.50;98679.84;4993293;28;20210;-70
2021/03/21 03:51:19;;;;;;;3.80;2.10;;;;;;;5.14;42.95;98678.50;4994744;28;20259;-70
2021/03/21 03:53:55;;;;;;;2.93;2.07;;;;;;;5.07;43.86;98682.75;4991073;28;20195;-70
2021/03/21 03:56:23;;;;;;;4.30;2.30;;;;;;;4.90;44.13;98683.56;4994033;28;20707;-70
2021/03/21 03:58:56;;;;;;;4.50;1.97;;;;;;;5.19;44.06;98691.28;4989852;28;20214;-70
2021/03/21 04:01:32;;;;;;;3.37;1.90;;;;;;;5.26;43.70;98684.41;4988835;28;20212;-70
2021/03/21 04:04:01;;;;;;;3.17;2.30;;;;;;;5.15;43.82;98695.22;4989299;28;20234;-70
2021/03/21 04:06:35;;;;;;;2.37;1.70;;;;;;;5.16;43.69;98692.44;4994340;28;20219;-70
2021/03/21 04:09:07;;;;;;;3.17;2.30;;;;;;;5.21;44.05;98682.22;4993209;28;20205;-70
2021/03/21 04:11:39;;;;;;;3.60;1.90;;;;;;;5.13;43.93;98674.19;4989356;28;20204;-70
2021/03/21 04:14:11;;;;;;;3.20;1.87;;;;;;;5.07;44.15;98671.34;4985911;28;20262;-70
2021/03/21 04:16:43;;;;;;;4.90;2.47;;;;;;;5.31;43.59;98667.09;4993527;28;20666;-70
2021/03/21 04:19:11;;;;;;;4.40;2.03;;;;;;;5.00;44.56;98665.81;4994060;28;20217;-70
2021/03/21 04:21:42;;;;;;;2.63;1.70;;;;;;;5.02;44.86;98665.69;4993690;28;20199;-70
2021/03/21 04:24:13;;;;;;;3.57;1.80;;;;;;;4.80;45.45;98664.28;4987953;28;20294;-70
2021/03/21 04:26:42;;;;;;;3.83;1.70;;;;;;;4.95;45.04;98664.59;4989738;28;20200;-70
2021/03/21 04:29:17;;;;;;;4.80;1.87;;;;;;;4.84;45.75;98672.75;4990368;28;20208;-70
2021/03/21 04:31:45;;;;;;;2.20;1.63;;;;;;;4.92;45.73;98668.38;4993188;28;20200;-70
2021/03/21 04:34:13;;;;;;;3.47;1.80;;;;;;;5.07;45.25;98653.63;4993678;28;20208;-70
2021/03/21 04:36:42;;;;;;;3.40;2.10;;;;;;;4.91;45.38;98650.00;4993513;28;20941;-70
2021/03/21 04:39:11;;;;;;;3.13;1.93;;;;;;;5.34;44.95;98647.44;4994051;28;20204;-70
2021/03/21 04:41:41;;;;;;;4.07;2.20;;;;;;;5.28;45.02;98643.56;4992814;28;20208;-70
2021/03/21 04:44:11;;;;;;;3.70;1.43;;;;;;;5.12;45.20;98647.91;4993722;28;20710;-69
2021/03/21 04:46:42;;;;;;;3.03;1.63;;;;;;;4.97;45.69;98649.44;4991656;28;20208;-70
2021/03/21 04:49:10;;;;;;;3.57;1.80;;;;;;;5.41;45.37;98629.97;4993865;28;20208;-70
2021/03/21 04:51:39;;;;;;;4.70;2.43;;;;;;;5.21;45.99;98629.31;4993222;28;20652;-70
2021/03/21 04:54:13;;;;;;;2.53;1.73;;;;;;;5.12;46.50;98619.63;4990292;28;20593;-70
2021/03/21 04:56:45;;;;;;;3.50;1.50;;;;;;;5.22;46.21;98612.44;4987435;28;20261;-70
2021/03/21 04:59:17;;;;;;;3.53;1.73;;;;;;;5.38;46.50;98609.09;4989426;28;20232;-70
2021/03/21 05:01:55;;;;;;;5.43;1.80;;;;;;;5.34;46.98;98608.56;4992357;28;20277;-70
2021/03/21 05:04:25;;;;;;;4.07;2.33;;;;;;;5.07;46.94;98607.84;4988438;28;20373;-70
2021/03/21 05:06:54;;;;;;;4.27;1.90;;;;;;;5.01;47.59;98616.38;4991173;28;20461;-70
2021/03/21 05:09:24;;;;;;;4.80;2.30;;;;;;;5.21;47.23;98616.06;4989952;28;20238;-70
2021/03/21 05:11:57;;;;;;;2.73;1.50;;;;;;;5.10;47.84;98616.31;4993066;28;20220;-70
2021/03/21 05:14:29;;;;;;;3.07;1.93;;;;;;;4.87;48.52;98619.56;4991084;28;20204;-70
2021/03/21 05:17:02;;;;;;;2.77;1.80;;;;;;;5.26;48.21;98619.09;4991519;28;20208;-70
2021/03/21 05:19:40;;;;;;;3.07;1.70;;;;;;;5.37;47.23;98633.88;4992179;28;20238;-70
2021/03/21 05:22:16;;;;;;;2.73;2.10;;;;;;;5.06;47.75;98627.34;4992418;28;20508;-70
2021/03/21 05:24:48;;;;;;;3.80;1.87;;;;;;;4.88;49.00;98629.97;4985720;28;20234;-70
2021/03/21 05:27:17;;;;;;;3.33;1.93;;;;;;;4.89;49.43;98639.59;4992613;28;20692;-70
2021/03/21 05:29:50;;;;;;;2.90;2.20;;;;;;;4.73;49.79;98631.47;4992164;28;20229;-70
2021/03/21 05:32:19;;;;;;;4.17;1.90;;;;;;;4.88;49.91;98629.16;4992050;28;20225;-70
2021/03/21 05:34:47;;;;;;;2.50;1.80;;;;;;;5.29;48.54;98637.28;4991805;28;20277;-70
2021/03/21 05:37:24;;;;;;;4.40;2.20;;;;;;;5.13;49.55;98637.16;4992727;28;20220;-70
2021/03/21 05:39:57;;;;;;;3.80;1.80;;;;;;;5.45;48.40;98636.63;4991948;28;20223;-70
2021/03/21 05:43:24;;;;;;;4.77;1.90;;;;;;;5.13;48.86;98633.69;4991837;28;20209;-70
2021/03/21 05:46:10;;;;;;;3.60;2.27;;;;;;;5.17;49.18;98635.88;4925655;29;20201;-70
2021/03/21 05:49:02;;;;;;;3.03;2.23;;;;;;;5.26;49.91;98627.03;4951146;29;20706;-70
2021/03/21 05:51:42;;;;;;;3.03;1.80;;;;;;;5.15;50.61;98621.97;4988412;28;20677;-70
2021/03/21 05:54:33;;;;;;;4.20;2.20;;;;;;;5.42;48.18;98624.50;4992694;28;20204;-70
2021/03/21 05:57:17;;;;;;;4.77;1.60;;;;;;;5.27;51.10;98617.25;4982668;28;20207;-70
2021/03/21 06:00:06;;;;;;;4.03;1.67;;;;;;;5.50;49.40;98613.16;4990196;28;20232;-76
2021/03/21 06:03:01;;;;;;;5.30;1.80;;;;;;;5.50;48.63;98611.34;4990644;28;20212;-76
2021/03/21 06:05:52;;;;;;;5.13;2.03;;;;;;;5.34;51.01;98591.88;4986290;28;20410;-76
2021/03/21 06:08:39;;;;;;;2.93;1.60;;;;;;;4.88;52.44;98590.31;4989957;28;20201;-76
2021/03/21 06:11:26;;;;;;;3.87;1.90;;;;;;;5.17;50.82;98582.97;4988176;28;20245;-75
2021/03/21 06:14:28;;;;;;;5.40;2.03;;;;;;;5.67;48.92;98589.28;4990928;28;20208;-74
2021/03/21 06:17:41;;;;;;;3.13;1.93;;;;;;;5.47;48.41;98593.13;4987679;28;20200;-75
2021/03/21 06:20:35;;;;;;;3.63;1.90;;;;;;;5.26;49.89;98589.16;4990212;28;20231;-76
2021/03/21 06:23:35;;;;;;;3.40;2.00;;;;;;;5.52;49.48;98590.00;4988503;28;20198;-74
2021/03/21 06:26:08;;;;;;;6.33;2.23;;;;;;;5.02;52.28;98588.97;4987862;28;20611;-73
2021/03/21 06:28:51;;;;;;;3.60;2.00;;;;;;;5.37;49.84;98586.25;4989113;28;20208;-72
2021/03/21 06:31:48;;;;;;;2.73;1.83;;;;;;;5.65;48.93;98590.44;4992685;28;20236;-73
2021/03/21 06:34:24;;;;;;;3.37;1.87;;;;;;;5.89;48.91;98591.41;4989310;28;20228;-78
2021/03/21 06:36:57;;;;;;;3.13;1.77;;;;;;;5.05;50.50;98607.16;4992753;28;20196;-78
2021/03/21 06:39:48;;;;;;;3.30;1.77;;;;;;;5.51;49.89;98589.19;4985591;28;20220;-77
2021/03/21 06:42:45;;;;;;;3.13;1.77;;;;;;;5.56;49.88;98591.34;4992715;28;20270;-79
2021/03/21 06:45:48;;;;;;;4.17;1.93;;;;;;;5.32;50.80;98597.31;4995815;28;20216;-78
2021/03/21 06:48:50;;;;;;;2.80;2.10;;;;;;;5.62;50.26;98593.38;4995128;28;20342;-73
2021/03/21 06:51:30;;;;;;;3.30;1.60;;;;;;;5.32;52.07;98586.72;4991546;28;20241;-72
2021/03/21 06:54:10;;;;;;;4.83;2.00;;;;;;;5.49;50.19;98588.50;4986619;28;20205;-72
2021/03/21 06:57:02;;;;;;;2.80;1.77;;;;;;;5.28;50.84;98587.19;4991186;28;20209;-72
2021/03/21 06:59:53;;;;;;;4.17;2.00;;;;;;;5.25;51.76;98577.75;4987677;28;20237;-72
2021/03/21 07:02:51;;;;;;;2.70;1.60;;;;;;;6.00;48.69;98585.03;4987692;28;20561;-73
2021/03/21 07:05:53;;;;;;;2.67;1.90;;;;;;;5.70;50.42;98580.19;4985010;28;20217;-72
2021/03/21 07:08:39;;;;;;;2.17;1.47;;;;;;;5.63;50.09;98580.00;4988771;28;20527;-72
2021/03/21 07:11:41;;;;;;;4.50;2.00;;;;;;;5.29;52.59;98570.34;4982273;28;20266;-72
2021/03/21 07:14:57;;;;;;;2.40;1.50;;;;;;;5.74;51.21;98568.31;4991769;28;20209;-73
2021/03/21 07:17:53;;;;;;;3.13;1.77;;;;;;;5.69;49.95;98566.13;4992136;28;20317;-74
2021/03/21 07:20:45;;;;;;;3.97;1.83;;;;;;;5.36;51.11;98561.63;4990657;28;20224;-76
2021/03/21 07:24:10;;;;;;;2.23;1.73;;;;;;;5.48;53.77;98560.38;4984372;28;20232;-75
2021/03/21 07:27:16;;;;;;;3.67;1.80;;;;;;;5.52;52.34;98558.22;4995122;28;20207;-75
2021/03/21 07:29:47;;;;;;;2.77;1.60;;;;;;;6.01;47.54;98558.41;4996012;28;20229;-77
2021/03/21 07:32:46;;;;;;;2.23;1.57;;;;;;;5.91;48.60;98565.63;4997250;28;20209;-81
2021/03/21 07:35:56;;;;;;;2.33;1.80;;;;;;;6.36;47.05;98573.25;5008446;28;20220;-82
2021/03/21 07:38:35;;;;;;;4.60;1.80;;;;;;;6.33;47.21;98584.16;4987951;28;20215;-80
2021/03/21 07:41:08;;;;;;;4.13;1.70;;;;;;;6.43;46.28;98584.88;5002604;28;20585;-80
2021/03/21 07:43:59;;;;;;;3.53;1.57;;;;;;;6.59;47.25;98576.94;5002161;28;20736;-77
2021/03/21 07:46:51;;;;;;;5.03;2.00;;;;;;;6.44;47.78;98581.25;4973849;28;20210;-77
2021/03/21 07:49:32;;;;;;;3.77;2.20;;;;;;;6.30;48.92;98571.25;4992560;28;20247;-76
2021/03/21 07:52:16;;;;;;;2.77;1.53;;;;;;;6.32;47.10;98577.22;5000837;28;20204;-80
2021/03/21 07:54:50;;;;;;;2.77;1.80;;;;;;;6.23;47.52;98586.13;4991251;28;20197;-73
2021/03/21 07:57:21;;;;;;;2.97;1.90;;;;;;;6.38;46.39;98584.50;4988746;28;20246;-74
2021/03/21 07:59:49;;;;;;;1.87;1.47;;;;;;;6.57;46.55;98582.44;4993796;28;20231;-74
2021/03/21 08:02:20;;;;;;;3.70;1.97;;;;;;;6.44;46.24;98576.75;4993856;28;20254;-80
2021/03/21 08:04:48;;;;;;;3.73;2.10;;;;;;;6.23;47.37;98565.75;4996343;28;20235;-77
2021/03/21 08:07:18;;;;;;;4.27;1.93;;;;;;;6.69;46.21;98567.03;4996734;28;20205;-78
2021/03/21 08:09:45;;;;;;;3.13;1.70;;;;;;;6.72;46.53;98564.06;4989144;28;20247;-77
2021/03/21 08:12:31;;;;;;;2.93;1.90;;;;;;;6.57;46.75;98563.03;4990327;28;20204;-79
2021/03/21 08:15:05;;;;;;;2.87;1.50;;;;;;;6.83;46.60;98564.59;4995955;28;20269;-77
2021/03/21 08:17:35;;;;;;;3.33;1.50;;;;;;;6.99;45.38;98559.28;4995401;28;20220;-74
2021/03/21 08:20:07;;;;;;;4.70;1.97;;;;;;;6.88;46.82;98556.97;4993828;28;20226;-74
2021/03/21 08:22:34;;;;;;;3.93;1.73;;;;;;;6.70;46.94;98556.25;4996909;28;20290;-73
2021/03/21 08:25:13;;;;;;;4.67;2.30;;;;;;;6.79;46.66;98551.78;4997253;28;20596;-79
2021/03/21 08:27:40;;;;;;;4.77;2.00;;;;;;;7.22;45.81;98548.84;4993847;28;20911;-73
2021/03/21 08:30:11;;;;;;;4.20;1.90;;;;;;;6.87;46.85;98543.84;4990719;28;20610;-76
2021/03/21 08:32:53;;;;;;;2.53;1.63;;;;;;;7.37;45.25;98529.41;4993106;28;20222;-76
2021/03/21 08:35:22;;;;;;;3.53;1.77;;;;;;;7.28;45.32;98532.25;4995489;28;20207;-76
2021/03/21 08:37:50;;;;;;;4.20;1.80;;;;;;;7.15;45.27;98531.94;4988671;28;20218;-74
2021/03/21 08:40:38;;;;;;;4.00;1.60;;;;;;;7.33;45.26;98529.91;4988925;28;20231;-74
2021/03/21 08:43:18;;;;;;;4.40;1.87;;;;;;;7.10;45.74;98515.69;4986992;28;20244;-74
2021/03/21 08:45:46;;;;;;;3.40;1.90;;;;;;;7.18;46.49;98516.50;4988436;28;20207;-79
2021/03/21 08:48:29;;;;;;;4.17;2.23;;;;;;;7.47;45.74;98515.97;4993878;28;20271;-77
2021/03/21 08:50:59;;;;;;;2.27;1.53;;;;;;;7.76;44.47;98516.22;4991305;28;20237;-76
2021/03/21 08:53:36;;;;;;;3.23;2.10;;;;;;;7.63;44.87;98499.97;4995886;28;20207;-74
2021/03/21 08:56:18;;;;;;;5.03;1.90;;;;;;;7.42;45.41;98500.50;4996436;28;20211;-79
2021/03/21 08:58:46;;;;;;;4.10;2.10;;;;;;;7.39;45.65;98503.53;4985479;28;20210;-78
2021/03/21 09:01:17;;;;;;;2.90;2.03;;;;;;;7.67;44.77;98501.31;4993315;28;20230;-76
2021/03/21 09:03:44;;;;;;;3.07;1.87;;;;;;;7.56;46.08;98494.53;4992994;28;20261;-77
2021/03/21 09:06:27;;;;;;;3.30;2.10;;;;;;;7.65;46.07;98503.28;4996707;28;20310;-74
2021/03/21 09:08:53;;;;;;;4.10;2.17;;;;;;;7.91;44.64;98507.34;4993068;28;20212;-74
2021/03/21 09:11:34;;;;;;;3.47;2.07;;;;;;;7.52;45.70;98509.13;4990231;28;20290;-73
2021/03/21 09:14:03;;;;;;;3.63;2.27;;;;;;;7.61;45.08;98508.13;4992062;28;20199;-73
2021/03/21 09:16:30;;;;;;;4.30;2.13;;;;;;;7.60;45.64;98508.28;4991847;28;20220;-75
2021/03/21 09:19:16;;;;;;;4.37;2.03;;;;;;;7.69;45.87;98509.91;4991437;28;20206;-75
2021/03/21 09:21:47;;;;;;;5.80;1.90;;;;;;;7.75;45.03;98519.84;4988059;28;20212;-74
2021/03/21 09:24:22;;;;;;;2.80;1.70;;;;;;;7.59;45.90;98510.13;4994752;28;20692;-80
2021/03/21 09:26:50;;;;;;;4.37;2.27;;;;;;;7.75;44.56;98517.19;4997025;28;20199;-83
2021/03/21 09:29:25;;;;;;;5.00;2.37;;;;;;;7.82;45.21;98513.69;5002040;28;20238;-79
2021/03/21 09:31:55;;;;;;;3.67;2.13;;;;;;;8.06;44.75;98510.94;4991967;28;20213;-79
2021/03/21 09:34:30;;;;;;;3.70;2.30;;;;;;;7.67;45.59;98519.91;5001056;28;20575;-75
2021/03/21 09:37:00;;;;;;;4.53;2.27;;;;;;;7.96;44.76;98520.97;4996605;28;20663;-81
2021/03/21 09:39:30;;;;;;;3.73;2.33;;;;;;;7.77;45.69;98521.34;4998568;28;20226;-79
2021/03/21 09:41:57;;;;;;;4.10;2.00;;;;;;;8.05;44.65;98522.59;4995762;28;20235;-74
2021/03/21 09:44:42;;;;;;;4.17;2.37;;;;;;;7.91;45.50;98528.63;4990510;28;20617;-72
2021/03/21 09:47:24;;;;;;;5.27;2.50;;;;;;;8.07;45.17;98533.88;4989403;28;20208;-75
2021/03/21 09:49:56;;;;;;;5.00;2.50;;;;;;;8.12;45.27;98528.03;4990417;28;20235;-70
2021/03/21 09:52:37;;;;;;;3.97;2.60;;;;;;;8.01;45.41;98525.78;4991168;28;20215;-73
2021/03/21 09:55:15;;;;;;;3.43;2.20;;;;;;;8.08;45.00;98532.84;4986515;28;20214;-74
2021/03/21 09:57:53;;;;;;;4.87;2.47;;;;;;;8.47;44.55;98532.91;4990191;28;20214;-77
2021/03/21 10:00:22;;;;;;;5.03;2.53;;;;;;;8.53;44.34;98526.88;4992529;28;20565;-75
2021/03/21 10:02:51;;;;;;;6.93;2.53;;;;;;;8.34;45.05;98535.28;4993331;28;20208;-78
2021/03/21 10:05:26;;;;;;;4.30;2.60;;;;;;;8.67;44.81;98526.94;4990304;28;20227;-76
2021/03/21 10:08:01;;;;;;;5.27;2.90;;;;;;;8.91;44.28;98529.44;4992112;28;20207;-74
2021/03/21 10:10:32;;;;;;;4.90;2.50;;;;;;;8.84;43.95;98528.47;4987343;28;20342;-73
2021/03/21 10:12:58;;;;;;;4.93;2.53;;;;;;;9.28;43.36;98531.31;4988791;28;20204;-75
2021/03/21 10:15:27;;;;;;;5.60;2.70;;;;;;;8.98;43.69;98525.03;4990454;28;20222;-76
2021/03/21 10:17:59;;;;;;;5.00;2.67;;;;;;;8.40;47.54;98519.47;4984258;28;20696;-74
2021/03/21 10:21:03;;;;;;;4.67;2.70;;;;;;;8.48;50.08;98519.41;4985374;28;20237;-76
2021/03/21 10:24:12;;;;;;;4.67;2.83;;;;;;;8.93;48.97;98518.63;4998552;28;20223;-82
2021/03/21 10:27:27;;;;;;;3.83;2.80;;;;;;;8.81;50.80;98526.19;4994776;28;20207;-72
2021/03/21 10:30:16;;;;;;;4.40;2.83;;;;;;;8.07;54.83;98514.44;4988701;28;20335;-76
2021/03/21 10:32:44;;;;;;;5.17;2.73;;;;;;;8.74;52.90;98503.13;4988734;28;20222;-77
2021/03/21 10:35:49;;;;;;;5.60;2.80;;;;;;;8.05;57.92;98493.34;4995011;28;20207;-76
2021/03/21 10:38:59;;;;;;;4.27;2.67;;;;;;;8.35;60.47;98489.06;4952740;29;20241;-82
2021/03/21 10:42:05;;;;;;;6.23;2.37;;;;;;;8.37;64.04;98477.25;4936974;29;20204;-78
2021/03/21 10:44:58;;;;;;;4.80;2.63;;;;;;;7.62;72.50;98467.28;4995768;28;20273;-80
2021/03/21 10:47:44;;;;;;;7.03;2.97;;;;;;;8.47;73.95;98459.22;4996587;28;20344;-82
2021/03/21 10:50:39;;;;;;;6.80;3.17;;;;;;;8.05;79.81;98455.31;4990879;28;20306;-78
2021/03/21 10:53:23;;;;;;;5.33;2.80;;;;;;;7.99;82.89;98453.34;4991588;28;20275;-79
2021/03/21 10:56:11;;;;;;;7.80;3.60;;;;;;;7.62;86.77;98451.34;5004949;28;20202;-80
2021/03/21 10:59:07;;;;;;;7.60;3.90;;;;;;;7.67;87.09;98446.34;5000496;28;20254;-78
2021/03/21 11:01:39;;;;;;;5.93;3.50;;;;;;;8.28;83.64;98448.22;5009401;28;20748;-78
2021/03/21 11:04:22;;;;;;;7.03;3.97;;;;;;;8.25;83.64;98452.06;4997981;28;20239;-77
2021/03/21 11:06:57;;;;;;;7.37;3.80;;;;;;;8.23;80.97;98447.94;4997742;28;20208;-77
2021/03/21 11:09:31;;;;;;;6.47;3.93;;;;;;;8.02;78.34;98453.00;4998263;28;20247;-78
2021/03/21 11:11:58;;;;;;;6.70;4.30;;;;;;;8.69;76.41;98434.47;4985822;28;20389;-79
2021/03/21 11:14:30;;;;;;;7.10;4.40;;;;;;;8.48;71.01;98428.97;4999066;28;20744;-76
2021/03/21 11:17:00;;;;;;;9.00;4.90;;;;;;;8.18;72.39;98429.00;4985623;28;20647;-77
2021/03/21 11:19:28;;;;;;;8.37;4.47;;;;;;;8.53;71.34;98423.94;4995229;28;20235;-75
2021/03/21 11:21:56;;;;;;;6.50;4.30;;;;;;;9.07;65.03;98432.63;4990728;28;20299;-76
2021/03/21 11:24:30;;;;;;;5.60;4.00;;;;;;;9.18;64.68;98435.69;4996408;28;20279;-76
2021/03/21 11:26:58;;;;;;;8.30;4.67;;;;;;;9.02;65.29;98430.50;4992592;28;20206;-82
2021/03/21 11:29:31;;;;;;;6.77;4.33;;;;;;;8.84;62.47;98435.31;4998234;28;20329;-80
2021/03/21 11:32:11;;;;;;;8.80;4.17;;;;;;;9.16;63.98;98428.88;4998103;28;20335;-79
2021/03/21 11:34:38;;;;;;;8.37;4.60;;;;;;;9.39;60.19;98443.78;4992372;28;20295;-78
2021/03/21 11:37:07;;;;;;;8.07;4.73;;;;;;;8.51;59.31;98444.56;4995072;28;20226;-82
2021/03/21 11:39:37;;;;;;;8.83;3.93;;;;;;;8.83;61.43;98423.03;5001037;28;21686;-79
2021/03/21 11:42:21;;;;;;;7.37;3.53;;;;;;;9.13;57.48;98434.59;5003955;28;20267;-78
2021/03/21 11:44:50;;;;;;;7.50;3.80;;;;;;;9.25;57.32;98435.78;4999051;28;20304;-81
2021/03/21 11:47:30;;;;;;;7.40;3.60;;;;;;;8.91;56.28;98438.94;4992388;28;20201;-79
2021/03/21 11:49:58;;;;;;;5.10;3.40;;;;;;;9.18;57.55;98425.03;4990817;28;20223;-76
2021/03/21 11:52:26;;;;;;;6.10;3.77;;;;;;;9.41;56.04;98433.78;4993685;28;20258;-73
2021/03/21 11:54:53;;;;;;;6.00;3.67;;;;;;;9.35;54.53;98434.50;4988593;28;20207;-74
2021/03/21 11:57:30;;;;;;;5.30;3.53;;;;;;;9.18;56.59;98429.53;4990381;28;20303;-74
2021/03/21 12:00:01;;;;;;;6.93;3.50;;;;;;;8.54;59.19;98433.59;4995631;28;20223;-74
2021/03/21 12:02:38;;;;;;;4.40;2.80;;;;;;;8.98;59.25;98426.56;4996215;28;20222;-77
2021/03/21 12:05:08;;;;;;;7.17;3.50;;;;;;;8.93;61.04;98423.59;4992250;28;20263;-78
2021/03/21 12:07:36;;;;;;;6.00;3.23;;;;;;;8.69;62.84;98421.19;4996552;28;20219;-76
2021/03/21 12:10:04;;;;;;;5.97;3.43;;;;;;;9.27;59.14;98420.44;4999336;28;20235;-75
2021/03/21 12:12:36;;;;;;;8.17;3.73;;;;;;;8.86;63.29;98417.34;4995688;28;20249;-82
2021/03/21 12:15:06;;;;;;;5.70;2.80;;;;;;;9.25;63.45;98427.78;4992550;28;20228;-73
2021/03/21 12:17:38;;;;;;;5.00;3.00;;;;;;;9.14;64.23;98420.25;4993120;28;20195;-74
2021/03/21 12:20:39;;;;;;;3.63;2.63;;;;;;;8.89;66.52;98416.97;4996359;28;20238;-86
2021/03/21 12:23:07;;;;;;;5.17;2.87;;;;;;;9.28;65.43;98412.25;4997381;28;20208;-78